KHDE/HDE METAR and TAF weather

Enter ICAO airport designator
Station Type Date Time Source
KHDE METAR 2019/06/19 02:55 UTC NOAA

KHDE 190255Z AUTO 03006KT 10SM OVC006 15/15 A2995 RMK AO2 60001 T01510150


Station Type Date Time Source
KHDE Decoded METAR 2019/06/19 02:55 UTC NOAA

Brewster Field Airport, NE, United States (KHDE) 40-27N 099-20W
Jun 18, 2019 - 10:55 PM EDT / 2019.06.19 0255 UTC
Wind: from the NNE (030 degrees) at 7 MPH (6 KT):0
Visibility: 10 mile(s):0
Sky conditions: overcast
Temperature: 59.2 F (15.1 C)
Dew Point: 59.0 F (15.0 C)
Relative Humidity: 99%
Pressure (altimeter): 29.95 in. Hg (1014 hPa)
ob: KHDE 190255Z AUTO 03006KT 10SM OVC006 15/15 A2995 RMK AO2 60001 T01510150
cycle: 3

Station Type Date Time Source
KHDE TAF UTC NOAA

Error!

Example: see airport list